createdAt,value
2018-07-28T00:02:15.564Z,20.90
2018-07-28T00:04:43.975Z,20.80
2018-07-28T00:07:12.407Z,20.80
2018-07-28T00:09:40.856Z,20.80
2018-07-28T00:12:09.373Z,20.70
2018-07-28T00:14:37.797Z,20.80
2018-07-28T00:17:06.289Z,20.70
2018-07-28T00:19:34.756Z,20.60
2018-07-28T00:22:03.241Z,20.70
2018-07-28T00:24:31.724Z,20.70
2018-07-28T00:27:00.311Z,20.70
2018-07-28T00:29:28.772Z,20.80
2018-07-28T00:31:57.325Z,20.80
2018-07-28T00:34:25.804Z,20.70
2018-07-28T00:36:54.389Z,20.60
2018-07-28T00:39:22.847Z,20.50
2018-07-28T00:41:51.380Z,20.40
2018-07-28T00:44:19.860Z,20.50
2018-07-28T00:46:48.316Z,20.50
2018-07-28T00:49:16.721Z,20.50
2018-07-28T00:51:45.173Z,20.20
2018-07-28T00:54:13.655Z,20.20
2018-07-28T00:56:42.889Z,20.10
2018-07-28T00:59:11.283Z,20.20
2018-07-28T01:01:39.804Z,20.20
2018-07-28T01:04:08.339Z,20.30
2018-07-28T01:09:08.095Z,20.30
2018-07-28T01:11:36.682Z,20.30
2018-07-28T01:14:06.698Z,20.20
2018-07-28T01:16:35.660Z,20.20
2018-07-28T01:21:32.720Z,20.30
2018-07-28T01:24:01.150Z,20.20
2018-07-28T01:26:29.666Z,20.30
2018-07-28T01:29:04.235Z,20.30
2018-07-28T01:31:32.655Z,20.30
2018-07-28T01:34:01.381Z,20.10
2018-07-28T01:36:29.819Z,20.00
2018-07-28T01:38:58.445Z,19.90
2018-07-28T01:41:27.047Z,19.80
2018-07-28T01:43:55.497Z,19.80
2018-07-28T01:46:23.887Z,19.80
2018-07-28T01:48:52.333Z,19.70
2018-07-28T01:51:20.768Z,19.60
2018-07-28T01:53:49.164Z,19.60
2018-07-28T01:56:17.735Z,19.50
2018-07-28T01:58:46.404Z,19.50
2018-07-28T02:01:14.969Z,19.40
2018-07-28T02:03:43.456Z,19.30
2018-07-28T02:08:40.335Z,19.30
2018-07-28T02:11:08.788Z,19.30
2018-07-28T02:16:06.405Z,19.40
2018-07-28T02:18:34.915Z,19.40
2018-07-28T02:21:03.383Z,19.40
2018-07-28T02:23:32.015Z,19.30
2018-07-28T02:26:00.596Z,19.20
2018-07-28T02:28:29.064Z,19.30
2018-07-28T02:30:57.472Z,19.30
2018-07-28T02:33:25.912Z,19.30
2018-07-28T02:35:54.735Z,19.20
2018-07-28T02:38:23.134Z,19.00
2018-07-28T02:40:51.549Z,19.10
2018-07-28T02:43:19.964Z,19.20
2018-07-28T02:48:16.761Z,19.10
2018-07-28T02:50:45.144Z,19.00
2018-07-28T02:53:13.559Z,19.00
2018-07-28T02:55:42.091Z,18.90
2018-07-28T02:58:10.500Z,18.90
2018-07-28T03:00:39.037Z,18.90
2018-07-28T03:03:07.450Z,18.90
2018-07-28T03:05:35.820Z,18.90
2018-07-28T03:08:04.387Z,18.90
2018-07-28T03:10:33.063Z,19.00
2018-07-28T03:13:01.558Z,19.00
2018-07-28T03:15:36.797Z,19.00
2018-07-28T03:18:07.577Z,18.90
2018-07-28T03:20:36.049Z,18.80
2018-07-28T03:23:05.064Z,18.90
2018-07-28T03:25:33.495Z,19.00
2018-07-28T03:28:01.920Z,19.00
2018-07-28T03:30:30.392Z,19.00
2018-07-28T03:32:58.920Z,19.00
2018-07-28T03:35:28.256Z,19.10
2018-07-28T03:37:56.956Z,19.00
2018-07-28T03:40:25.510Z,18.90
2018-07-28T03:42:54.122Z,18.90
2018-07-28T03:45:22.735Z,18.80
2018-07-28T03:47:51.178Z,18.70
2018-07-28T03:50:19.624Z,18.50
2018-07-28T03:52:48.282Z,18.40
2018-07-28T03:55:16.681Z,18.40
2018-07-28T03:57:45.187Z,18.40
2018-07-28T04:00:13.612Z,18.60
2018-07-28T04:02:42.028Z,18.50
2018-07-28T04:05:11.686Z,18.50
2018-07-28T04:07:40.726Z,18.50
2018-07-28T04:10:09.916Z,18.60
2018-07-28T04:12:39.201Z,18.70
2018-07-28T04:15:10.003Z,18.70
2018-07-28T04:17:49.498Z,18.70
2018-07-28T04:20:17.960Z,18.70
2018-07-28T04:22:46.394Z,18.80
2018-07-28T04:25:14.899Z,18.90
2018-07-28T04:27:43.381Z,19.00
2018-07-28T04:30:11.897Z,19.10
2018-07-28T04:32:40.472Z,19.20
2018-07-28T04:35:09.102Z,19.10
2018-07-28T04:37:38.678Z,19.00
2018-07-28T04:40:08.297Z,18.90
2018-07-28T04:42:36.857Z,18.90
2018-07-28T04:45:06.032Z,19.00
2018-07-28T04:50:02.788Z,19.10
2018-07-28T04:52:31.225Z,19.30
2018-07-28T04:55:00.030Z,19.60
2018-07-28T04:57:28.474Z,19.80
2018-07-28T04:59:57.136Z,20.10
2018-07-28T05:02:26.909Z,20.30
2018-07-28T05:04:56.130Z,20.30
2018-07-28T05:07:25.211Z,20.40
2018-07-28T05:09:54.049Z,20.50
2018-07-28T05:12:22.696Z,20.30
2018-07-28T05:14:51.161Z,20.40
2018-07-28T05:17:19.685Z,20.70
2018-07-28T05:19:48.139Z,21.10
2018-07-28T05:22:16.609Z,21.10
2018-07-28T05:24:45.395Z,21.10
2018-07-28T05:27:14.055Z,20.80
2018-07-28T05:29:42.619Z,21.30
2018-07-28T05:32:11.089Z,21.80
2018-07-28T05:34:39.518Z,22.00
2018-07-28T05:37:08.013Z,22.30
2018-07-28T05:39:36.420Z,22.70
2018-07-28T05:42:04.890Z,22.90
2018-07-28T05:44:33.459Z,22.80
2018-07-28T05:47:02.039Z,23.70
2018-07-28T05:49:30.523Z,23.80
2018-07-28T05:51:58.992Z,24.10
2018-07-28T05:54:27.589Z,24.70
2018-07-28T05:56:56.067Z,25.30
2018-07-28T05:59:24.721Z,25.30
2018-07-28T06:01:53.529Z,25.30
2018-07-28T06:04:22.221Z,25.30
2018-07-28T06:06:50.924Z,25.40
2018-07-28T06:09:19.515Z,24.40
2018-07-28T06:11:48.069Z,24.20
2018-07-28T06:14:16.628Z,24.10
2018-07-28T06:16:45.093Z,23.80
2018-07-28T06:19:13.601Z,23.40
2018-07-28T06:21:42.162Z,23.60
2018-07-28T06:24:10.808Z,23.60
2018-07-28T06:26:39.276Z,23.70
2018-07-28T06:29:07.756Z,23.90
2018-07-28T06:34:04.456Z,25.50
2018-07-28T06:36:33.207Z,25.70
2018-07-28T06:41:29.999Z,26.80
2018-07-28T06:43:58.460Z,27.10
2018-07-28T06:46:26.917Z,27.60
2018-07-28T06:48:56.159Z,27.80
2018-07-28T06:51:24.605Z,27.60
2018-07-28T06:53:53.012Z,27.70
2018-07-28T06:56:21.532Z,28.10
2018-07-28T06:58:50.091Z,28.80
2018-07-28T07:01:18.821Z,29.40
2018-07-28T07:03:47.374Z,29.40
2018-07-28T07:06:15.906Z,29.30
2018-07-28T07:08:44.341Z,29.60
2018-07-28T07:11:12.879Z,29.40
2018-07-28T07:13:41.784Z,29.50
2018-07-28T07:16:10.414Z,30.10
2018-07-28T07:18:45.342Z,29.80
2018-07-28T07:21:13.877Z,30.00
2018-07-28T07:23:42.305Z,30.40
2018-07-28T07:26:10.780Z,30.40
2018-07-28T07:28:39.270Z,30.80
2018-07-28T07:31:07.813Z,30.60
2018-07-28T07:33:36.455Z,31.30
2018-07-28T07:36:05.089Z,30.70
2018-07-28T07:38:34.551Z,30.90
2018-07-28T07:41:03.090Z,31.20
2018-07-28T07:43:31.556Z,31.30
2018-07-28T07:46:00.014Z,30.90
2018-07-28T07:48:28.478Z,31.50
2018-07-28T07:50:56.968Z,31.80
2018-07-28T07:53:25.521Z,32.30
2018-07-28T07:55:53.994Z,31.50
2018-07-28T07:58:22.642Z,31.50
2018-07-28T08:00:51.116Z,32.10
2018-07-28T08:03:19.567Z,32.60
2018-07-28T08:05:48.073Z,31.10
2018-07-28T08:08:16.566Z,32.30
2018-07-28T08:10:45.329Z,32.90
2018-07-28T08:13:14.086Z,33.30
2018-07-28T08:15:42.591Z,33.30
2018-07-28T08:18:11.108Z,33.00
2018-07-28T08:20:39.741Z,33.50
2018-07-28T08:23:08.669Z,33.90
2018-07-28T08:25:37.214Z,32.90
2018-07-28T08:28:05.677Z,33.70
2018-07-28T08:30:34.257Z,33.90
2018-07-28T08:33:02.985Z,34.20
2018-07-28T08:35:31.567Z,33.80
2018-07-28T08:38:00.156Z,33.10
2018-07-28T08:40:28.775Z,33.80
2018-07-28T08:42:57.340Z,34.40
2018-07-28T08:45:25.731Z,35.40
2018-07-28T08:47:54.266Z,34.60
2018-07-28T08:50:22.698Z,33.00
2018-07-28T08:52:51.378Z,33.90
2018-07-28T08:55:19.949Z,33.70
2018-07-28T08:57:48.675Z,33.80
2018-07-28T09:00:17.138Z,34.00
2018-07-28T09:02:45.582Z,34.40
2018-07-28T09:05:14.112Z,34.90
2018-07-28T09:07:42.689Z,35.70
2018-07-28T09:10:11.209Z,35.00
2018-07-28T09:12:39.734Z,33.20
2018-07-28T09:15:09.222Z,33.20
2018-07-28T09:17:37.651Z,33.50
2018-07-28T09:20:06.704Z,32.80
2018-07-28T09:22:35.237Z,32.20
2018-07-28T09:25:03.815Z,32.80
2018-07-28T09:27:32.660Z,34.50
2018-07-28T09:30:01.097Z,34.70
2018-07-28T09:32:29.569Z,35.60
2018-07-28T09:34:58.185Z,35.30
2018-07-28T09:37:26.812Z,35.30
2018-07-28T09:39:55.884Z,35.70
2018-07-28T09:42:24.569Z,35.30
2018-07-28T09:44:53.391Z,34.80
2018-07-28T09:47:21.942Z,33.80
2018-07-28T09:49:50.601Z,34.90
2018-07-28T09:52:19.184Z,35.90
2018-07-28T09:54:47.966Z,35.60
2018-07-28T09:57:16.454Z,35.90
2018-07-28T09:59:45.028Z,34.50
2018-07-28T10:02:14.243Z,34.80
2018-07-28T10:04:42.964Z,34.80
2018-07-28T10:07:11.401Z,35.50
2018-07-28T10:09:39.856Z,36.50
2018-07-28T10:12:08.398Z,37.00
2018-07-28T10:14:36.882Z,38.10
2018-07-28T10:17:05.426Z,38.10
2018-07-28T10:19:34.110Z,38.30
2018-07-28T10:22:02.765Z,39.10
2018-07-28T10:24:31.601Z,39.30
2018-07-28T10:27:00.189Z,37.90
2018-07-28T10:29:29.059Z,36.90
2018-07-28T10:31:57.544Z,36.70
2018-07-28T10:34:26.106Z,37.60
2018-07-28T10:36:54.781Z,38.30
2018-07-28T10:39:23.328Z,39.00
2018-07-28T10:41:51.766Z,38.10
2018-07-28T10:44:20.313Z,39.10
2018-07-28T10:46:48.824Z,39.40
2018-07-28T10:49:17.274Z,39.40
2018-07-28T10:51:45.860Z,38.10
2018-07-28T10:54:14.374Z,38.80
2018-07-28T10:56:42.922Z,36.40
2018-07-28T11:01:39.674Z,37.30
2018-07-28T11:04:08.303Z,38.10
2018-07-28T11:06:37.050Z,38.60
2018-07-28T11:09:08.417Z,38.80
2018-07-28T11:11:37.431Z,38.00
2018-07-28T11:14:06.412Z,37.10
2018-07-28T11:16:34.969Z,38.10
2018-07-28T11:19:03.809Z,38.40
2018-07-28T11:21:32.335Z,38.00
2018-07-28T11:24:02.093Z,38.60
2018-07-28T11:26:30.638Z,38.20
2018-07-28T11:31:38.617Z,39.70
2018-07-28T11:34:18.244Z,39.20
2018-07-28T11:36:58.136Z,40.40
2018-07-28T11:39:37.780Z,39.60
2018-07-28T11:42:17.579Z,41.00
2018-07-28T11:45:06.125Z,41.90
2018-07-28T11:47:34.703Z,40.40
2018-07-28T11:50:03.219Z,39.90
2018-07-28T11:52:31.616Z,40.90
2018-07-28T11:55:00.191Z,41.60
2018-07-28T11:57:28.788Z,42.30
2018-07-28T11:59:57.381Z,41.50
2018-07-28T12:02:25.886Z,41.00
2018-07-28T12:04:54.421Z,40.60
2018-07-28T12:07:22.854Z,40.80
2018-07-28T12:09:51.419Z,37.70
2018-07-28T12:12:20.191Z,36.90
2018-07-28T12:14:49.814Z,38.60
2018-07-28T12:17:18.560Z,40.30
2018-07-28T12:19:47.074Z,40.80
2018-07-28T12:22:15.599Z,41.40
2018-07-28T12:24:44.036Z,40.80
2018-07-28T12:27:12.491Z,37.80
2018-07-28T12:29:40.906Z,37.20
2018-07-28T12:32:09.654Z,36.10
2018-07-28T12:34:38.148Z,35.00
2018-07-28T12:37:06.718Z,34.60
2018-07-28T12:39:35.263Z,33.90
2018-07-28T12:42:03.753Z,33.00
2018-07-28T12:44:32.529Z,32.60
2018-07-28T12:47:00.974Z,32.20
2018-07-28T12:51:57.660Z,30.90
2018-07-28T12:54:26.240Z,30.70
2018-07-28T12:56:54.905Z,30.70
2018-07-28T12:59:23.305Z,30.70
2018-07-28T13:01:51.893Z,30.80
2018-07-28T13:04:20.352Z,30.80
2018-07-28T13:06:48.847Z,31.00
2018-07-28T13:09:17.286Z,31.60
2018-07-28T13:11:45.812Z,33.10
2018-07-28T13:14:14.356Z,34.70
2018-07-28T13:16:42.790Z,34.60
2018-07-28T13:19:11.245Z,34.30
2018-07-28T13:21:39.903Z,34.90
2018-07-28T13:24:08.383Z,35.40
2018-07-28T13:26:36.893Z,36.10
2018-07-28T13:29:05.345Z,36.10
2018-07-28T13:31:33.828Z,35.40
2018-07-28T13:34:02.543Z,35.20
2018-07-28T13:36:30.951Z,35.40
2018-07-28T13:38:59.353Z,35.20
2018-07-28T13:41:27.832Z,34.10
2018-07-28T13:43:56.362Z,33.60
2018-07-28T13:46:24.933Z,34.80
2018-07-28T13:48:53.463Z,36.40
2018-07-28T13:51:21.930Z,36.50
2018-07-28T13:53:50.382Z,35.00
2018-07-28T13:56:18.878Z,34.80
2018-07-28T13:58:47.510Z,33.90
2018-07-28T14:01:15.997Z,33.40
2018-07-28T14:03:44.506Z,32.80
2018-07-28T14:06:13.124Z,32.50
2018-07-28T14:08:41.524Z,32.30
2018-07-28T14:11:10.313Z,32.10
2018-07-28T14:13:38.920Z,32.00
2018-07-28T14:16:07.480Z,31.90
2018-07-28T14:18:36.034Z,31.70
2018-07-28T14:21:04.693Z,31.30
2018-07-28T14:23:33.255Z,30.80
2018-07-28T14:26:01.673Z,30.50
2018-07-28T14:28:30.316Z,30.00
2018-07-28T14:30:59.039Z,28.70
2018-07-28T14:33:27.543Z,28.00
2018-07-28T14:35:56.024Z,27.20
2018-07-28T14:38:24.737Z,26.40
2018-07-28T14:40:53.248Z,25.60
2018-07-28T14:43:21.659Z,25.20
2018-07-28T14:45:50.235Z,24.90
2018-07-28T14:48:18.838Z,24.60
2018-07-28T14:50:47.391Z,24.30
2018-07-28T14:53:15.961Z,24.40
2018-07-28T14:55:44.618Z,24.60
2018-07-28T14:58:13.056Z,24.80
2018-07-28T15:00:41.943Z,24.90
2018-07-28T15:03:10.369Z,24.50
2018-07-28T15:05:39.147Z,23.90
2018-07-28T15:08:07.797Z,23.90
2018-07-28T15:10:36.334Z,23.90
2018-07-28T15:13:04.768Z,23.80
2018-07-28T15:15:33.241Z,24.10
2018-07-28T15:18:01.908Z,24.50
2018-07-28T15:20:30.473Z,25.10
2018-07-28T15:25:27.048Z,25.80
2018-07-28T15:27:55.616Z,26.10
2018-07-28T15:30:24.237Z,26.30
2018-07-28T15:32:52.946Z,26.50
2018-07-28T15:35:21.649Z,26.70
2018-07-28T15:37:50.470Z,27.00
2018-07-28T15:40:18.910Z,27.00
2018-07-28T15:42:47.549Z,27.50
2018-07-28T15:45:16.069Z,27.70
2018-07-28T15:47:44.594Z,28.00
2018-07-28T15:50:13.124Z,27.90
2018-07-28T15:52:42.019Z,27.80
2018-07-28T15:55:10.515Z,27.70
2018-07-28T15:57:39.667Z,27.80
2018-07-28T16:00:08.367Z,27.90
2018-07-28T16:02:36.849Z,27.60
2018-07-28T16:05:05.495Z,27.90
2018-07-28T16:07:34.149Z,28.00
2018-07-28T16:12:30.903Z,27.70
2018-07-28T16:17:27.877Z,27.70
2018-07-28T16:19:56.288Z,27.80
2018-07-28T16:22:24.789Z,27.80
2018-07-28T16:24:53.185Z,27.60
2018-07-28T16:27:21.729Z,27.50
2018-07-28T16:29:50.296Z,27.60
2018-07-28T16:32:18.957Z,27.70
2018-07-28T16:34:47.447Z,28.00
2018-07-28T16:37:16.010Z,28.20
2018-07-28T16:39:44.516Z,28.10
2018-07-28T16:42:13.103Z,28.20
2018-07-28T16:44:41.931Z,28.30
2018-07-28T16:47:10.675Z,28.40
2018-07-28T16:49:39.178Z,28.20
2018-07-28T16:52:07.766Z,28.30
2018-07-28T16:54:36.495Z,28.30
2018-07-28T16:57:05.165Z,28.40
2018-07-28T16:59:33.634Z,28.30
2018-07-28T17:02:02.141Z,28.30
2018-07-28T17:04:30.613Z,28.30
2018-07-28T17:06:59.051Z,28.10
2018-07-28T17:09:27.559Z,28.00
2018-07-28T17:11:56.016Z,28.00
2018-07-28T17:14:24.552Z,27.80
2018-07-28T17:16:53.284Z,27.80
2018-07-28T17:19:21.794Z,27.70
2018-07-28T17:21:50.335Z,27.60
2018-07-28T17:24:18.870Z,27.60
2018-07-28T17:26:47.405Z,27.50
2018-07-28T17:29:15.981Z,27.20
2018-07-28T17:31:44.637Z,27.20
2018-07-28T17:34:13.155Z,27.20
2018-07-28T17:36:41.638Z,27.10
2018-07-28T17:39:11.033Z,27.00
2018-07-28T17:41:40.092Z,26.90
2018-07-28T17:44:08.609Z,26.80
2018-07-28T17:46:37.153Z,26.70
2018-07-28T17:49:05.668Z,26.60
2018-07-28T17:51:34.328Z,26.60
2018-07-28T17:54:02.840Z,26.50
2018-07-28T17:56:31.234Z,26.40
2018-07-28T17:58:59.727Z,26.40
2018-07-28T18:01:28.358Z,26.30
2018-07-28T18:03:56.926Z,26.20
2018-07-28T18:06:25.407Z,26.10
2018-07-28T18:08:53.905Z,26.10
2018-07-28T18:11:22.373Z,26.00
2018-07-28T18:13:50.900Z,25.90
2018-07-28T18:16:19.490Z,25.80
2018-07-28T18:18:48.010Z,25.80
2018-07-28T18:23:44.698Z,25.60
2018-07-28T18:26:13.142Z,25.50
2018-07-28T18:28:41.786Z,25.50
2018-07-28T18:31:10.241Z,25.40
2018-07-28T18:33:38.804Z,25.40
2018-07-28T18:36:07.257Z,25.30
2018-07-28T18:38:35.682Z,25.20
2018-07-28T18:43:32.497Z,25.20
2018-07-28T18:46:01.016Z,25.10
2018-07-28T18:48:29.564Z,25.00
2018-07-28T18:50:57.960Z,25.00
2018-07-28T18:53:26.529Z,25.00
2018-07-28T18:55:55.116Z,24.90
2018-07-28T18:58:23.908Z,24.80
2018-07-28T19:00:52.824Z,24.80
2018-07-28T19:03:21.314Z,24.80
2018-07-28T19:05:49.811Z,24.70
2018-07-28T19:08:18.261Z,24.70
2018-07-28T19:10:46.801Z,24.60
2018-07-28T19:13:20.669Z,24.60
2018-07-28T19:15:49.206Z,24.50
2018-07-28T19:18:23.359Z,24.50
2018-07-28T19:20:51.842Z,24.50
2018-07-28T19:23:25.769Z,24.40
2018-07-28T19:25:54.433Z,24.40
2018-07-28T19:29:26.100Z,24.30
2018-07-28T19:31:54.586Z,24.30
2018-07-28T19:34:23.040Z,24.30
2018-07-28T19:36:56.824Z,24.20
2018-07-28T19:39:25.348Z,24.30
2018-07-28T19:41:59.234Z,24.20
2018-07-28T19:44:27.717Z,24.20
2018-07-28T19:46:56.235Z,24.10
2018-07-28T19:49:24.747Z,24.10
2018-07-28T19:51:53.263Z,24.10
2018-07-28T19:54:21.697Z,24.10
2018-07-28T19:56:50.157Z,24.00
2018-07-28T19:59:18.688Z,24.00
2018-07-28T20:01:53.653Z,24.00
2018-07-28T20:04:22.111Z,23.90
2018-07-28T20:09:18.971Z,23.90
2018-07-28T20:11:47.494Z,23.80
2018-07-28T20:14:15.938Z,23.80
2018-07-28T20:16:44.552Z,23.80
2018-07-28T20:19:13.056Z,23.70
2018-07-28T20:21:41.574Z,23.70
2018-07-28T20:24:10.197Z,23.70
2018-07-28T20:26:38.972Z,23.70
2018-07-28T20:29:07.512Z,23.60
2018-07-28T20:31:36.121Z,23.60
2018-07-28T20:34:04.586Z,23.50
2018-07-28T20:36:33.050Z,23.50
2018-07-28T20:39:01.537Z,23.50
2018-07-28T20:41:30.142Z,23.50
2018-07-28T20:46:26.739Z,23.30
2018-07-28T20:48:55.190Z,23.30
2018-07-28T20:51:23.676Z,23.30
2018-07-28T20:56:20.342Z,23.10
2018-07-28T20:58:48.782Z,23.00
2018-07-28T21:01:17.279Z,23.00
2018-07-28T21:03:46.008Z,22.90
2018-07-28T21:06:15.451Z,22.90
2018-07-28T21:08:44.260Z,22.80
2018-07-28T21:11:12.708Z,22.80
2018-07-28T21:13:41.320Z,22.70
2018-07-28T21:16:09.736Z,22.70
2018-07-28T21:18:38.251Z,22.70
2018-07-28T21:21:07.412Z,22.70
2018-07-28T21:23:36.014Z,22.70
2018-07-28T21:26:04.705Z,22.70
2018-07-28T21:28:33.272Z,22.70
2018-07-28T21:31:01.841Z,22.70
2018-07-28T21:33:30.280Z,22.70
2018-07-28T21:35:58.917Z,22.70
2018-07-28T21:38:27.460Z,22.70
2018-07-28T21:43:24.192Z,22.70
2018-07-28T21:45:52.833Z,22.60
2018-07-28T21:48:21.335Z,22.60
2018-07-28T21:50:49.964Z,22.50
2018-07-28T21:53:18.577Z,22.50
2018-07-28T21:55:47.122Z,22.50
2018-07-28T21:58:15.795Z,22.50
2018-07-28T22:00:50.773Z,22.40
2018-07-28T22:03:19.248Z,22.40
2018-07-28T22:05:47.721Z,22.40
2018-07-28T22:08:16.286Z,22.40
2018-07-28T22:10:44.771Z,22.40
2018-07-28T22:13:13.396Z,22.40
2018-07-28T22:15:41.915Z,22.40
2018-07-28T22:18:10.407Z,22.30
2018-07-28T22:20:38.884Z,22.30
2018-07-28T22:23:07.483Z,22.30
2018-07-28T22:25:36.039Z,22.30
2018-07-28T22:28:04.597Z,22.20
2018-07-28T22:30:33.190Z,22.20
2018-07-28T22:33:01.718Z,22.20
2018-07-28T22:35:30.372Z,22.20
2018-07-28T22:37:59.159Z,22.10
2018-07-28T22:40:27.600Z,22.10
2018-07-28T22:42:56.203Z,22.20
2018-07-28T22:45:24.736Z,22.20
2018-07-28T22:50:21.545Z,22.20
2018-07-28T22:52:50.077Z,22.20
2018-07-28T22:55:18.720Z,22.20
2018-07-28T22:57:47.137Z,22.20
2018-07-28T23:00:15.714Z,22.20
2018-07-28T23:02:44.145Z,22.20
2018-07-28T23:05:12.718Z,22.20
2018-07-28T23:07:41.237Z,22.20
2018-07-28T23:10:10.020Z,22.20
2018-07-28T23:12:38.644Z,22.20
2018-07-28T23:15:07.169Z,22.20
2018-07-28T23:17:35.721Z,22.30
2018-07-28T23:20:04.693Z,22.20
2018-07-28T23:22:33.100Z,22.20
2018-07-28T23:25:01.586Z,22.10
2018-07-28T23:27:30.220Z,22.10
2018-07-28T23:29:58.658Z,22.10
2018-07-28T23:32:27.321Z,22.20
2018-07-28T23:34:56.871Z,22.10
2018-07-28T23:37:25.414Z,22.10
2018-07-28T23:39:53.987Z,22.10
2018-07-28T23:42:22.511Z,22.00
2018-07-28T23:44:51.116Z,22.10
2018-07-28T23:47:19.621Z,22.10
2018-07-28T23:49:48.220Z,22.10
2018-07-28T23:52:16.882Z,22.10
2018-07-28T23:54:45.448Z,22.10
2018-07-28T23:57:14.028Z,22.10
2018-07-28T23:59:42.767Z,22.10
